createdAt,value
2023-04-21T00:01:55.141Z,6.06
2023-04-21T00:04:23.740Z,6.08
2023-04-21T00:06:53.078Z,6.13
2023-04-21T00:09:22.260Z,5.94
2023-04-21T00:11:49.924Z,6.12
2023-04-21T00:14:17.763Z,6.16
2023-04-21T00:16:45.710Z,6.01
2023-04-21T00:19:13.722Z,5.93
2023-04-21T00:21:41.674Z,5.93
2023-04-21T00:24:09.744Z,5.86
2023-04-21T00:26:38.926Z,5.85
2023-04-21T00:29:06.728Z,5.83
2023-04-21T00:31:34.498Z,5.77
2023-04-21T00:34:02.190Z,5.86
2023-04-21T00:36:29.830Z,5.43
2023-04-21T00:38:57.470Z,5.80
2023-04-21T00:41:25.107Z,5.82
2023-04-21T00:44:04.588Z,5.81
2023-04-21T00:46:32.777Z,5.80
2023-04-21T00:49:01.482Z,5.83
2023-04-21T00:51:29.963Z,5.73
2023-04-21T00:53:57.656Z,5.59
2023-04-21T00:56:27.030Z,5.63
2023-04-21T00:58:56.089Z,5.61
2023-04-21T01:01:25.070Z,5.55
2023-04-21T01:03:53.033Z,5.51
2023-04-21T01:06:21.099Z,5.48
2023-04-21T01:08:49.560Z,5.49
2023-04-21T01:11:17.283Z,5.43
2023-04-21T01:13:44.898Z,5.38
2023-04-21T01:16:17.497Z,5.41
2023-04-21T01:18:46.889Z,5.39
2023-04-21T01:21:14.704Z,5.43
2023-04-21T01:23:44.295Z,5.57
2023-04-21T01:26:12.528Z,5.63
2023-04-21T01:28:40.202Z,5.60
2023-04-21T01:31:07.838Z,5.68
2023-04-21T01:33:35.545Z,5.67
2023-04-21T01:36:03.356Z,5.66
2023-04-21T01:38:31.067Z,5.70
2023-04-21T01:41:01.465Z,5.72
2023-04-21T01:43:29.149Z,5.79
2023-04-21T01:45:57.845Z,5.79
2023-04-21T01:48:25.644Z,6.01
2023-04-21T01:50:53.296Z,6.08
2023-04-21T01:53:20.959Z,6.03
2023-04-21T01:55:48.633Z,6.07
2023-04-21T01:58:17.700Z,6.05
2023-04-21T02:00:45.752Z,5.98
2023-04-21T02:03:13.503Z,6.05
2023-04-21T02:05:41.359Z,5.97
2023-04-21T02:08:09.425Z,6.13
2023-04-21T02:10:37.126Z,6.09
2023-04-21T02:13:04.790Z,6.06
2023-04-21T02:15:33.834Z,6.04
2023-04-21T02:18:01.720Z,6.05
2023-04-21T02:20:29.541Z,6.07
2023-04-21T02:22:57.171Z,6.14
2023-04-21T02:25:25.542Z,6.16
2023-04-21T02:27:53.216Z,6.32
2023-04-21T02:30:21.107Z,6.26
2023-04-21T02:32:50.335Z,6.37
2023-04-21T02:35:18.072Z,6.42
2023-04-21T02:37:45.794Z,6.34
2023-04-21T02:40:13.895Z,6.25
2023-04-21T02:42:41.577Z,6.19
2023-04-21T02:45:12.113Z,6.20
2023-04-21T02:47:39.835Z,6.18
2023-04-21T02:50:09.712Z,6.09
2023-04-21T02:52:38.211Z,6.15
2023-04-21T02:55:06.559Z,6.07
2023-04-21T02:57:34.225Z,6.07
2023-04-21T03:00:01.924Z,6.09
2023-04-21T03:02:29.922Z,6.09
2023-04-21T03:04:58.007Z,6.05
2023-04-21T03:07:26.959Z,6.09
2023-04-21T03:09:54.660Z,6.03
2023-04-21T03:12:22.347Z,5.96
2023-04-21T03:14:50.126Z,5.86
2023-04-21T03:17:17.908Z,5.84
2023-04-21T03:19:45.572Z,5.72
2023-04-21T03:22:13.390Z,5.63
2023-04-21T03:24:42.443Z,5.53
2023-04-21T03:27:11.179Z,5.45
2023-04-21T03:29:38.961Z,5.33
2023-04-21T03:32:06.684Z,5.28
2023-04-21T03:34:34.435Z,5.33
2023-04-21T03:37:05.465Z,5.21
2023-04-21T03:39:33.105Z,5.15
2023-04-21T03:42:04.958Z,5.07
2023-04-21T03:44:32.612Z,4.99
2023-04-21T03:47:03.669Z,4.96
2023-04-21T03:49:31.643Z,4.83
2023-04-21T03:51:59.238Z,4.76
2023-04-21T03:54:27.112Z,4.70
2023-04-21T03:56:54.777Z,4.88
2023-04-21T03:59:23.817Z,5.00
2023-04-21T04:01:51.440Z,5.00
2023-04-21T04:04:19.260Z,4.81
2023-04-21T04:06:47.221Z,4.87
2023-04-21T04:09:14.828Z,4.46
2023-04-21T04:11:42.500Z,4.77
2023-04-21T04:14:10.721Z,4.74
2023-04-21T04:16:39.655Z,4.66
2023-04-21T04:19:07.294Z,4.69
2023-04-21T04:21:35.208Z,4.77
2023-04-21T04:24:05.700Z,4.78
2023-04-21T04:26:35.475Z,4.92
2023-04-21T04:29:03.953Z,4.91
2023-04-21T04:31:32.420Z,5.07
2023-04-21T04:34:01.846Z,5.13
2023-04-21T04:36:29.540Z,5.22
2023-04-21T04:38:58.390Z,4.96
2023-04-21T04:41:26.177Z,4.91
2023-04-21T04:43:54.323Z,4.83
2023-04-21T04:46:21.934Z,4.72
2023-04-21T04:48:49.583Z,4.79
2023-04-21T04:51:18.817Z,4.90
2023-04-21T04:53:46.408Z,5.01
2023-04-21T04:56:14.056Z,5.15
2023-04-21T04:58:41.786Z,5.25
2023-04-21T05:01:13.739Z,5.29
2023-04-21T05:03:41.621Z,5.19
2023-04-21T05:06:09.809Z,5.10
2023-04-21T05:08:40.092Z,5.24
2023-04-21T05:11:08.249Z,5.40
2023-04-21T05:13:38.225Z,5.50
2023-04-21T05:16:09.989Z,5.54
2023-04-21T05:18:37.976Z,5.69
2023-04-21T05:21:05.791Z,5.85
2023-04-21T05:23:33.586Z,5.85
2023-04-21T05:26:04.510Z,6.00
2023-04-21T05:28:32.754Z,6.16
2023-04-21T05:31:00.381Z,6.30
2023-04-21T05:33:27.999Z,6.55
2023-04-21T05:35:55.701Z,6.73
2023-04-21T05:38:23.473Z,6.65
2023-04-21T05:40:55.340Z,6.87
2023-04-21T05:43:24.387Z,6.97
2023-04-21T05:45:52.164Z,7.03
2023-04-21T05:48:19.984Z,7.18
2023-04-21T05:50:47.727Z,7.14
2023-04-21T05:53:15.448Z,7.31
2023-04-21T05:55:43.061Z,7.51
2023-04-21T05:58:10.808Z,7.61
2023-04-21T06:00:39.752Z,7.80
2023-04-21T06:03:07.630Z,7.79
2023-04-21T06:05:35.544Z,8.00
2023-04-21T06:08:03.239Z,8.11
2023-04-21T06:10:31.316Z,8.11
2023-04-21T06:12:58.909Z,8.10
2023-04-21T06:15:26.591Z,7.93
2023-04-21T06:17:55.946Z,7.53
2023-04-21T06:20:23.705Z,7.58
2023-04-21T06:22:51.531Z,7.60
2023-04-21T06:25:19.408Z,7.52
2023-04-21T06:27:47.928Z,7.35
2023-04-21T06:30:15.914Z,7.45
2023-04-21T06:32:45.783Z,7.78
2023-04-21T06:35:15.191Z,8.00
2023-04-21T06:37:43.042Z,8.16
2023-04-21T06:40:12.319Z,8.20
2023-04-21T06:42:39.985Z,8.06
2023-04-21T06:45:09.774Z,8.19
2023-04-21T06:47:37.493Z,8.26
2023-04-21T06:50:06.436Z,8.42
2023-04-21T06:52:35.720Z,8.50
2023-04-21T06:55:03.340Z,8.82
2023-04-21T06:57:30.960Z,8.73
2023-04-21T06:59:58.615Z,8.91
2023-04-21T07:02:26.306Z,8.75
2023-04-21T07:04:54.060Z,8.70
2023-04-21T07:07:21.768Z,8.87
2023-04-21T07:09:50.736Z,8.75
2023-04-21T07:12:18.405Z,8.97
2023-04-21T07:14:46.020Z,9.04
2023-04-21T07:17:13.801Z,9.08
2023-04-21T07:19:41.507Z,9.48
2023-04-21T07:22:09.142Z,9.60
2023-04-21T07:24:37.361Z,9.59
2023-04-21T07:27:06.453Z,9.62
2023-04-21T07:29:34.280Z,9.44
2023-04-21T07:32:01.948Z,9.44
2023-04-21T07:34:29.575Z,9.74
2023-04-21T07:36:57.376Z,9.99
2023-04-21T07:39:25.016Z,10.21
2023-04-21T07:41:53.853Z,10.27
2023-04-21T07:44:23.151Z,10.73
2023-04-21T07:46:50.865Z,11.17
2023-04-21T07:49:18.591Z,10.88
2023-04-21T07:51:46.314Z,10.73
2023-04-21T07:54:13.920Z,10.69
2023-04-21T07:56:41.559Z,10.46
2023-04-21T07:59:09.191Z,10.43
2023-04-21T08:01:38.227Z,10.65
2023-04-21T08:04:06.606Z,10.62
2023-04-21T08:06:34.566Z,11.11
2023-04-21T08:09:02.296Z,11.15
2023-04-21T08:11:29.944Z,10.94
2023-04-21T08:13:57.634Z,11.29
2023-04-21T08:16:25.478Z,11.50
2023-04-21T08:18:54.512Z,11.29
2023-04-21T08:21:22.144Z,11.42
2023-04-21T08:23:50.964Z,11.29
2023-04-21T08:26:18.901Z,11.56
2023-04-21T08:28:48.670Z,11.23
2023-04-21T08:31:16.490Z,11.52
2023-04-21T08:33:57.900Z,11.82
2023-04-21T08:36:30.702Z,12.12
2023-04-21T08:38:59.127Z,12.30
2023-04-21T08:41:27.632Z,12.37
2023-04-21T08:43:55.351Z,12.87
2023-04-21T08:46:24.274Z,12.49
2023-04-21T08:48:53.725Z,12.20
2023-04-21T08:51:24.646Z,12.38
2023-04-21T08:53:55.564Z,12.45
2023-04-21T08:56:25.723Z,12.44
2023-04-21T08:58:53.421Z,12.47
2023-04-21T09:01:21.203Z,12.87
2023-04-21T09:03:49.203Z,13.35
2023-04-21T09:06:17.235Z,13.38
2023-04-21T09:08:56.442Z,13.62
2023-04-21T09:11:24.381Z,13.30
2023-04-21T09:13:52.860Z,13.27
2023-04-21T09:16:22.750Z,13.56
2023-04-21T09:18:51.440Z,13.92
2023-04-21T09:21:20.702Z,14.13
2023-04-21T09:23:50.922Z,14.18
2023-04-21T09:26:22.715Z,14.44
2023-04-21T09:28:52.166Z,14.70
2023-04-21T09:31:21.643Z,14.52
2023-04-21T09:36:22.097Z,14.37
2023-04-21T09:41:34.064Z,14.42
2023-04-21T09:44:04.202Z,14.84
2023-04-21T09:46:35.216Z,15.16
2023-04-21T09:49:03.625Z,14.89
2023-04-21T09:54:28.349Z,15.49
2023-04-21T09:57:01.738Z,15.60
2023-04-21T09:59:31.630Z,15.53
2023-04-21T10:02:01.271Z,15.87
2023-04-21T10:04:32.354Z,15.84
2023-04-21T10:07:01.815Z,16.30
2023-04-21T10:09:36.114Z,16.05
2023-04-21T10:12:09.010Z,16.06
2023-04-21T10:14:37.271Z,16.44
2023-04-21T10:17:06.679Z,16.17
2023-04-21T10:19:39.548Z,16.38
2023-04-21T10:22:08.484Z,16.59
2023-04-21T10:24:39.172Z,16.75
2023-04-21T10:27:11.271Z,16.68
2023-04-21T10:29:52.465Z,16.36
2023-04-21T10:32:33.240Z,17.35
2023-04-21T10:35:01.659Z,17.12
2023-04-21T10:37:32.343Z,17.42
2023-04-21T10:40:00.216Z,17.57
2023-04-21T10:42:34.627Z,17.71
2023-04-21T10:45:08.462Z,18.29
2023-04-21T10:47:45.128Z,18.52
2023-04-21T10:50:15.449Z,18.40
2023-04-21T10:52:52.487Z,18.54
2023-04-21T10:55:20.702Z,18.41
2023-04-21T10:57:50.155Z,18.24
2023-04-21T11:00:20.590Z,18.65
2023-04-21T11:02:56.684Z,18.98
2023-04-21T11:05:34.603Z,19.37
2023-04-21T11:08:20.265Z,19.15
2023-04-21T11:10:51.830Z,19.37
2023-04-21T11:13:23.793Z,19.74
2023-04-21T11:15:59.280Z,19.90
2023-04-21T11:18:34.766Z,19.11
2023-04-21T11:21:11.448Z,19.00
2023-04-21T11:23:42.948Z,18.40
2023-04-21T11:26:10.598Z,18.58
2023-04-21T11:28:41.426Z,18.39
2023-04-21T11:31:09.160Z,18.72
2023-04-21T11:33:37.699Z,18.83
2023-04-21T11:36:06.969Z,18.87
2023-04-21T11:38:38.888Z,18.53
2023-04-21T11:41:07.098Z,18.51
2023-04-21T11:43:34.723Z,18.45
2023-04-21T11:46:19.090Z,18.29
2023-04-21T11:48:47.156Z,18.15
2023-04-21T11:51:16.369Z,18.35
2023-04-21T11:53:44.083Z,18.10
2023-04-21T11:56:12.714Z,18.76
2023-04-21T11:58:40.561Z,18.64
2023-04-21T12:01:09.041Z,18.77
2023-04-21T12:03:38.207Z,18.36
2023-04-21T12:06:07.436Z,18.44
2023-04-21T12:08:35.624Z,18.93
2023-04-21T12:11:03.909Z,19.02
2023-04-21T12:13:32.471Z,18.72
2023-04-21T12:16:03.869Z,18.83
2023-04-21T12:18:34.900Z,18.48
2023-04-21T12:21:05.425Z,18.78
2023-04-21T12:23:33.084Z,18.71
2023-04-21T12:26:01.326Z,18.51
2023-04-21T12:28:30.760Z,18.95
2023-04-21T12:30:58.442Z,18.68
2023-04-21T12:33:26.201Z,18.69
2023-04-21T12:35:53.909Z,18.17
2023-04-21T12:38:22.860Z,18.05
2023-04-21T12:40:50.472Z,18.32
2023-04-21T12:43:18.252Z,18.47
2023-04-21T12:45:46.000Z,18.95
2023-04-21T12:48:13.847Z,18.83
2023-04-21T12:50:41.537Z,18.54
2023-04-21T12:53:09.233Z,18.50
2023-04-21T12:55:38.476Z,18.71
2023-04-21T12:58:06.908Z,18.42
2023-04-21T13:00:36.024Z,18.96
2023-04-21T13:03:04.400Z,19.05
2023-04-21T13:05:32.540Z,18.82
2023-04-21T13:08:00.210Z,18.41
2023-04-21T13:10:27.823Z,17.78
2023-04-21T13:12:57.121Z,18.26
2023-04-21T13:15:25.020Z,18.67
2023-04-21T13:17:52.677Z,18.99
2023-04-21T13:20:20.552Z,19.28
2023-04-21T13:22:48.310Z,19.21
2023-04-21T13:25:16.407Z,19.07
2023-04-21T13:27:44.127Z,19.14
2023-04-21T13:30:15.305Z,18.94
2023-04-21T13:32:43.828Z,19.04
2023-04-21T13:35:11.785Z,19.03
2023-04-21T13:37:39.855Z,19.02
2023-04-21T13:40:10.928Z,19.27
2023-04-21T13:42:40.465Z,19.71
2023-04-21T13:45:09.152Z,19.79
2023-04-21T13:47:38.219Z,19.95
2023-04-21T13:50:07.007Z,20.17
2023-04-21T13:52:36.083Z,20.49
2023-04-21T13:55:05.126Z,20.70
2023-04-21T13:57:33.007Z,20.59
2023-04-21T14:00:00.766Z,20.17
2023-04-21T14:02:28.807Z,20.42
2023-04-21T14:04:58.224Z,20.58
2023-04-21T14:07:26.829Z,20.78
2023-04-21T14:09:54.551Z,20.67
2023-04-21T14:12:22.215Z,20.51
2023-04-21T14:14:49.864Z,20.28
2023-04-21T14:17:17.592Z,20.42
2023-04-21T14:19:45.176Z,20.29
2023-04-21T14:22:14.128Z,20.73
2023-04-21T14:24:41.804Z,20.87
2023-04-21T14:27:09.450Z,20.87
2023-04-21T14:29:37.508Z,20.31
2023-04-21T14:32:05.689Z,20.42
2023-04-21T14:34:33.416Z,20.26
2023-04-21T14:37:01.363Z,20.19
2023-04-21T14:39:30.436Z,20.45
2023-04-21T14:41:58.078Z,20.78
2023-04-21T14:44:25.778Z,20.90
2023-04-21T14:47:08.385Z,20.67
2023-04-21T14:49:38.142Z,20.66
2023-04-21T14:52:06.955Z,20.90
2023-04-21T14:54:36.041Z,20.89
2023-04-21T14:57:18.694Z,21.02
2023-04-21T14:59:48.452Z,20.77
2023-04-21T15:02:16.593Z,20.64
2023-04-21T15:04:44.503Z,20.46
2023-04-21T15:07:12.556Z,20.45
2023-04-21T15:09:45.528Z,20.58
2023-04-21T15:12:14.574Z,20.34
2023-04-21T15:14:42.429Z,20.57
2023-04-21T15:17:11.374Z,20.37
2023-04-21T15:19:39.210Z,20.62
2023-04-21T15:22:06.984Z,20.84
2023-04-21T15:24:34.688Z,20.51
2023-04-21T15:27:04.034Z,20.68
2023-04-21T15:29:31.672Z,20.56
2023-04-21T15:31:59.385Z,20.55
2023-04-21T15:34:26.994Z,20.95
2023-04-21T15:36:54.744Z,20.61
2023-04-21T15:39:22.404Z,20.89
2023-04-21T15:41:50.062Z,20.81
2023-04-21T15:44:19.068Z,20.76
2023-04-21T15:46:46.782Z,20.57
2023-04-21T15:49:14.540Z,20.82
2023-04-21T15:51:42.379Z,20.90
2023-04-21T15:54:10.501Z,20.95
2023-04-21T15:56:38.269Z,20.76
2023-04-21T15:59:06.564Z,20.74
2023-04-21T16:01:35.616Z,20.80
2023-04-21T16:04:03.510Z,20.90
2023-04-21T16:06:31.552Z,21.21
2023-04-21T16:08:59.340Z,21.21
2023-04-21T16:11:29.272Z,21.23
2023-04-21T16:13:57.137Z,21.18
2023-04-21T16:16:25.073Z,21.11
2023-04-21T16:18:54.125Z,21.03
2023-04-21T16:21:21.876Z,20.75
2023-04-21T16:23:49.763Z,20.52
2023-04-21T16:26:17.369Z,20.80
2023-04-21T16:28:45.522Z,20.71
2023-04-21T16:31:13.302Z,20.64
2023-04-21T16:33:41.096Z,20.48
2023-04-21T16:36:10.229Z,20.40
2023-04-21T16:38:37.902Z,20.52
2023-04-21T16:41:05.892Z,20.43
2023-04-21T16:43:33.619Z,20.02
2023-04-21T16:46:01.319Z,19.69
2023-04-21T16:48:29.085Z,19.25
2023-04-21T16:50:56.843Z,19.08
2023-04-21T16:53:26.562Z,19.09
2023-04-21T16:55:54.296Z,18.95
2023-04-21T16:58:24.207Z,18.15
2023-04-21T17:00:51.913Z,17.20
2023-04-21T17:03:19.841Z,16.76
2023-04-21T17:05:48.067Z,16.41
2023-04-21T17:08:15.787Z,16.65
2023-04-21T17:10:44.748Z,16.21
2023-04-21T17:13:12.453Z,16.21
2023-04-21T17:15:40.151Z,16.30
2023-04-21T17:18:07.889Z,16.38
2023-04-21T17:20:36.566Z,16.29
2023-04-21T17:23:04.168Z,16.08
2023-04-21T17:25:31.939Z,16.02
2023-04-21T17:28:01.060Z,16.22
2023-04-21T17:30:28.764Z,16.32
2023-04-21T17:33:08.386Z,16.44
2023-04-21T17:35:55.790Z,16.27
2023-04-21T17:38:29.614Z,16.20
2023-04-21T17:40:57.289Z,16.12
2023-04-21T17:43:26.322Z,16.23
2023-04-21T17:45:54.167Z,16.18
2023-04-21T17:48:22.012Z,15.91
2023-04-21T17:50:49.650Z,15.79
2023-04-21T17:53:17.352Z,15.81
2023-04-21T17:55:45.153Z,15.73
2023-04-21T17:58:12.969Z,15.58
2023-04-21T18:00:42.338Z,15.43
2023-04-21T18:03:10.208Z,15.27
2023-04-21T18:05:37.906Z,15.11
2023-04-21T18:08:05.716Z,15.00
2023-04-21T18:10:33.537Z,14.83
2023-04-21T18:13:01.180Z,14.69
2023-04-21T18:15:28.834Z,14.49
2023-04-21T18:17:57.918Z,14.31
2023-04-21T18:20:26.110Z,14.04
2023-04-21T18:22:54.351Z,13.81
2023-04-21T18:25:34.371Z,13.64
2023-04-21T18:28:10.922Z,13.66
2023-04-21T18:30:38.891Z,13.72
2023-04-21T18:33:08.043Z,13.77
2023-04-21T18:35:35.713Z,13.65
2023-04-21T18:38:03.452Z,13.41
2023-04-21T18:40:33.055Z,13.38
2023-04-21T18:43:01.337Z,13.39
2023-04-21T18:45:28.952Z,13.53
2023-04-21T18:47:56.658Z,13.65
2023-04-21T18:50:27.364Z,13.74
2023-04-21T18:52:55.169Z,13.77
2023-04-21T18:55:23.058Z,13.99
2023-04-21T18:57:50.750Z,14.10
2023-04-21T19:00:18.530Z,14.09
2023-04-21T19:02:48.616Z,14.19
2023-04-21T19:05:16.601Z,14.29
2023-04-21T19:07:46.010Z,14.18
2023-04-21T19:10:13.651Z,14.19
2023-04-21T19:12:41.590Z,14.37
2023-04-21T19:15:10.437Z,14.50
2023-04-21T19:17:38.257Z,14.64
2023-04-21T19:20:06.823Z,14.57
2023-04-21T19:22:36.081Z,14.57
2023-04-21T19:25:05.922Z,14.52
2023-04-21T19:27:33.913Z,14.44
2023-04-21T19:30:02.023Z,13.99
2023-04-21T19:32:30.177Z,14.36
2023-04-21T19:34:57.869Z,14.12
2023-04-21T19:37:27.046Z,14.11
2023-04-21T19:39:54.761Z,14.16
2023-04-21T19:42:24.166Z,14.39
2023-04-21T19:44:51.940Z,14.50
2023-04-21T19:47:19.687Z,14.55
2023-04-21T19:49:47.320Z,14.53
2023-04-21T19:52:15.141Z,14.62
2023-04-21T19:54:42.797Z,14.76
2023-04-21T19:57:10.407Z,14.87
2023-04-21T19:59:39.925Z,14.83
2023-04-21T20:02:08.332Z,14.83
2023-04-21T20:04:37.438Z,14.69
2023-04-21T20:07:05.193Z,14.84
2023-04-21T20:09:32.823Z,14.81
2023-04-21T20:12:01.455Z,14.75
2023-04-21T20:14:29.081Z,14.61
2023-04-21T20:16:58.342Z,14.43
2023-04-21T20:19:26.880Z,14.31
2023-04-21T20:21:54.508Z,14.27
2023-04-21T20:24:23.053Z,14.25
2023-04-21T20:26:50.666Z,14.23
2023-04-21T20:29:18.444Z,14.26
2023-04-21T20:31:46.490Z,14.30
2023-04-21T20:34:15.586Z,14.27
2023-04-21T20:36:43.445Z,14.06
2023-04-21T20:39:11.531Z,14.05
2023-04-21T20:41:39.216Z,13.93
2023-04-21T20:44:07.069Z,13.82
2023-04-21T20:46:34.778Z,13.81
2023-04-21T20:49:02.549Z,13.54
2023-04-21T20:51:32.626Z,13.14
2023-04-21T20:54:00.422Z,13.57
2023-04-21T20:56:28.151Z,13.27
2023-04-21T20:58:55.873Z,13.36
2023-04-21T21:01:24.130Z,13.44
2023-04-21T21:03:52.902Z,13.35
2023-04-21T21:06:21.558Z,13.32
2023-04-21T21:08:50.621Z,13.25
2023-04-21T21:11:18.368Z,13.25
2023-04-21T21:13:45.994Z,13.17
2023-04-21T21:16:14.462Z,13.11
2023-04-21T21:18:42.153Z,12.92
2023-04-21T21:21:10.374Z,12.96
2023-04-21T21:23:38.099Z,12.99
2023-04-21T21:26:07.576Z,12.89
2023-04-21T21:28:35.680Z,12.81
2023-04-21T21:31:03.621Z,12.90
2023-04-21T21:33:31.283Z,12.91
2023-04-21T21:35:58.950Z,12.88
2023-04-21T21:38:26.709Z,13.00
2023-04-21T21:40:54.338Z,13.04
2023-04-21T21:43:23.613Z,13.00
2023-04-21T21:45:51.391Z,12.93
2023-04-21T21:48:19.045Z,13.02
2023-04-21T21:50:46.723Z,13.00
2023-04-21T21:53:14.397Z,13.16
2023-04-21T21:55:42.109Z,12.99
2023-04-21T21:58:09.846Z,13.01
2023-04-21T22:00:39.622Z,13.14
2023-04-21T22:03:07.665Z,13.10
2023-04-21T22:05:35.920Z,13.16
2023-04-21T22:08:04.137Z,13.28
2023-04-21T22:10:31.798Z,13.27
2023-04-21T22:12:59.459Z,13.21
2023-04-21T22:15:27.075Z,13.26
2023-04-21T22:17:56.180Z,13.26
2023-04-21T22:20:24.982Z,13.31
2023-04-21T22:22:52.579Z,13.22
2023-04-21T22:25:26.658Z,13.21
2023-04-21T22:27:54.394Z,13.22
2023-04-21T22:30:22.124Z,13.25
2023-04-21T22:32:49.928Z,13.22
2023-04-21T22:35:19.086Z,13.18
2023-04-21T22:37:46.741Z,13.28
2023-04-21T22:40:14.584Z,13.33
2023-04-21T22:42:42.797Z,13.35
2023-04-21T22:45:11.260Z,13.30
2023-04-21T22:47:38.936Z,13.26
2023-04-21T22:50:09.100Z,13.31
2023-04-21T22:52:38.347Z,13.30
2023-04-21T22:55:06.651Z,13.08
2023-04-21T22:57:37.162Z,12.94
2023-04-21T23:00:06.016Z,12.76
2023-04-21T23:02:33.927Z,12.72
2023-04-21T23:05:01.763Z,12.82
2023-04-21T23:07:29.453Z,12.76
2023-04-21T23:09:58.395Z,12.54
2023-04-21T23:12:26.085Z,12.61
2023-04-21T23:14:53.802Z,12.61
2023-04-21T23:17:21.931Z,12.52
2023-04-21T23:19:49.548Z,12.67
2023-04-21T23:22:17.233Z,12.97
2023-04-21T23:24:44.890Z,13.05
2023-04-21T23:27:13.945Z,13.18
2023-04-21T23:29:41.635Z,13.14
2023-04-21T23:32:09.505Z,13.13
2023-04-21T23:34:37.220Z,13.08
2023-04-21T23:37:04.832Z,13.04
2023-04-21T23:39:32.875Z,13.05
2023-04-21T23:42:02.322Z,12.98
2023-04-21T23:44:31.300Z,12.99
2023-04-21T23:46:58.933Z,12.99
2023-04-21T23:49:26.590Z,12.76
2023-04-21T23:51:54.208Z,12.81
2023-04-21T23:54:21.879Z,12.87
2023-04-21T23:56:49.506Z,12.83
2023-04-21T23:59:17.583Z,12.84
